createdAt,value
2023-05-04T00:00:06.601Z,16.26
2023-05-04T00:02:35.013Z,16.26
2023-05-04T00:05:04.567Z,16.32
2023-05-04T00:07:32.826Z,16.40
2023-05-04T00:10:01.589Z,16.38
2023-05-04T00:12:29.962Z,16.48
2023-05-04T00:14:59.608Z,16.54
2023-05-04T00:17:27.815Z,16.60
2023-05-04T00:19:55.951Z,16.63
2023-05-04T00:22:24.292Z,16.62
2023-05-04T00:24:52.420Z,16.66
2023-05-04T00:27:20.661Z,16.66
2023-05-04T00:29:48.831Z,16.66
2023-05-04T00:32:18.877Z,16.68
2023-05-04T00:34:47.292Z,16.65
2023-05-04T00:37:15.507Z,16.74
2023-05-04T00:39:43.720Z,16.75
2023-05-04T00:42:11.967Z,16.80
2023-05-04T00:44:41.503Z,16.88
2023-05-04T00:47:10.347Z,16.90
2023-05-04T00:49:40.434Z,16.91
2023-05-04T00:52:09.430Z,16.97
2023-05-04T00:54:37.554Z,17.03
2023-05-04T00:57:07.356Z,17.11
2023-05-04T00:59:36.063Z,17.06
2023-05-04T01:02:04.317Z,17.09
2023-05-04T01:04:32.552Z,17.17
2023-05-04T01:07:11.878Z,17.23
2023-05-04T01:09:44.371Z,17.25
2023-05-04T01:12:16.909Z,17.04
2023-05-04T01:14:45.631Z,17.16
2023-05-04T01:17:14.098Z,17.25
2023-05-04T01:19:42.314Z,17.31
2023-05-04T01:22:12.093Z,17.36
2023-05-04T01:24:40.450Z,17.35
2023-05-04T01:27:17.122Z,17.40
2023-05-04T01:29:55.838Z,17.43
2023-05-04T01:32:27.671Z,17.44
2023-05-04T01:34:56.668Z,17.46
2023-05-04T01:37:27.014Z,17.45
2023-05-04T01:39:55.657Z,17.34
2023-05-04T01:42:25.227Z,17.27
2023-05-04T01:44:53.513Z,17.26
2023-05-04T01:47:21.993Z,17.30
2023-05-04T01:49:50.784Z,17.16
2023-05-04T01:52:18.983Z,17.05
2023-05-04T01:54:48.575Z,17.06
2023-05-04T01:57:17.210Z,17.16
2023-05-04T01:59:47.373Z,17.24
2023-05-04T02:02:15.657Z,17.35
2023-05-04T02:04:44.747Z,17.36
2023-05-04T02:07:13.091Z,17.46
2023-05-04T02:09:41.422Z,17.56
2023-05-04T02:12:11.144Z,17.52
2023-05-04T02:14:39.282Z,17.47
2023-05-04T02:17:08.441Z,17.46
2023-05-04T02:19:38.546Z,17.45
2023-05-04T02:22:08.074Z,17.47
2023-05-04T02:24:36.418Z,17.53
2023-05-04T02:27:04.690Z,17.47
2023-05-04T02:29:34.323Z,17.44
2023-05-04T02:32:02.606Z,17.46
2023-05-04T02:34:31.514Z,17.44
2023-05-04T02:36:59.685Z,17.38
2023-05-04T02:39:27.908Z,17.40
2023-05-04T02:41:56.024Z,17.33
2023-05-04T02:44:24.140Z,17.27
2023-05-04T02:46:53.695Z,17.24
2023-05-04T02:49:23.523Z,17.13
2023-05-04T02:51:52.341Z,16.89
2023-05-04T02:54:21.125Z,16.81
2023-05-04T02:56:49.350Z,16.79
2023-05-04T02:59:17.584Z,16.72
2023-05-04T03:01:45.710Z,16.73
2023-05-04T03:04:15.608Z,16.78
2023-05-04T03:06:43.675Z,16.76
2023-05-04T03:09:12.607Z,16.70
2023-05-04T03:11:40.704Z,16.64
2023-05-04T03:14:09.116Z,16.48
2023-05-04T03:16:37.276Z,16.51
2023-05-04T03:19:05.652Z,16.54
2023-05-04T03:21:35.397Z,16.61
2023-05-04T03:24:03.714Z,16.67
2023-05-04T03:26:32.436Z,16.67
2023-05-04T03:29:01.328Z,16.77
2023-05-04T03:31:29.772Z,16.81
2023-05-04T03:33:58.095Z,16.84
2023-05-04T03:36:26.401Z,16.80
2023-05-04T03:38:57.195Z,16.87
2023-05-04T03:41:25.592Z,16.89
2023-05-04T03:43:53.776Z,16.89
2023-05-04T03:46:22.029Z,16.81
2023-05-04T03:48:50.411Z,16.90
2023-05-04T03:51:20.129Z,16.85
2023-05-04T03:53:48.735Z,16.87
2023-05-04T03:56:20.427Z,16.87
2023-05-04T03:58:49.149Z,16.91
2023-05-04T04:01:21.681Z,16.91
2023-05-04T04:03:50.163Z,16.96
2023-05-04T04:06:20.547Z,16.90
2023-05-04T04:08:48.755Z,17.00
2023-05-04T04:11:16.880Z,17.02
2023-05-04T04:13:46.514Z,16.97
2023-05-04T04:16:14.737Z,16.92
2023-05-04T04:18:42.975Z,16.86
2023-05-04T04:21:11.321Z,16.85
2023-05-04T04:23:39.635Z,16.78
2023-05-04T04:26:07.727Z,16.68
2023-05-04T04:28:36.016Z,16.69
2023-05-04T04:31:05.627Z,16.68
2023-05-04T04:33:34.669Z,16.77
2023-05-04T04:36:02.746Z,16.78
2023-05-04T04:38:31.127Z,16.68
2023-05-04T04:40:59.233Z,16.79
2023-05-04T04:43:27.382Z,16.87
2023-05-04T04:45:55.467Z,16.88
2023-05-04T04:48:25.969Z,16.67
2023-05-04T04:50:54.084Z,16.59
2023-05-04T04:53:22.255Z,16.65
2023-05-04T04:55:50.617Z,16.76
2023-05-04T04:58:18.692Z,16.76
2023-05-04T05:00:47.775Z,16.73
2023-05-04T05:03:16.146Z,16.80
2023-05-04T05:05:45.836Z,16.93
2023-05-04T05:08:14.081Z,16.72
2023-05-04T05:10:44.012Z,16.82
2023-05-04T05:13:12.545Z,16.84
2023-05-04T05:15:40.869Z,16.89
2023-05-04T05:18:09.104Z,16.91
2023-05-04T05:20:37.647Z,16.98
2023-05-04T05:23:07.364Z,16.94
2023-05-04T05:25:35.920Z,16.99
2023-05-04T05:28:04.400Z,17.00
2023-05-04T05:30:32.727Z,16.96
2023-05-04T05:33:00.972Z,16.83
2023-05-04T05:35:29.157Z,16.72
2023-05-04T05:37:57.365Z,16.58
2023-05-04T05:40:26.867Z,16.57
2023-05-04T05:42:54.981Z,16.51
2023-05-04T05:45:23.297Z,16.52
2023-05-04T05:47:51.945Z,16.45
2023-05-04T05:50:21.073Z,16.32
2023-05-04T05:52:49.384Z,16.27
2023-05-04T05:55:17.998Z,16.30
2023-05-04T05:57:47.870Z,16.32
2023-05-04T06:00:17.458Z,16.34
2023-05-04T06:02:45.841Z,16.37
2023-05-04T06:05:14.416Z,16.36
2023-05-04T06:07:42.607Z,16.36
2023-05-04T06:10:11.472Z,16.35
2023-05-04T06:12:39.780Z,16.39
2023-05-04T06:15:10.688Z,16.40
2023-05-04T06:17:39.131Z,16.32
2023-05-04T06:20:10.429Z,16.32
2023-05-04T06:22:38.712Z,16.34
2023-05-04T06:25:08.445Z,16.30
2023-05-04T06:27:36.794Z,16.28
2023-05-04T06:30:05.735Z,16.22
2023-05-04T06:32:35.583Z,16.23
2023-05-04T06:35:04.696Z,16.32
2023-05-04T06:37:33.212Z,16.53
2023-05-04T06:40:01.464Z,16.81
2023-05-04T06:42:30.748Z,16.88
2023-05-04T06:44:59.040Z,16.82
2023-05-04T06:47:27.205Z,16.73
2023-05-04T06:49:58.017Z,16.56
2023-05-04T06:52:29.715Z,16.58
2023-05-04T06:54:58.056Z,16.46
2023-05-04T06:57:26.194Z,16.37
2023-05-04T06:59:54.434Z,16.31
2023-05-04T07:02:22.722Z,16.25
2023-05-04T07:04:52.750Z,16.24
2023-05-04T07:07:22.352Z,16.29
2023-05-04T07:09:50.547Z,16.36
2023-05-04T07:12:19.371Z,16.38
2023-05-04T07:14:47.669Z,16.41
2023-05-04T07:17:15.916Z,16.42
2023-05-04T07:19:44.557Z,16.33
2023-05-04T07:22:13.003Z,16.35
2023-05-04T07:24:42.644Z,16.49
2023-05-04T07:27:11.661Z,16.49
2023-05-04T07:29:39.861Z,16.42
2023-05-04T07:32:08.168Z,16.55
2023-05-04T07:34:45.236Z,16.56
2023-05-04T07:37:15.938Z,16.53
2023-05-04T07:39:45.632Z,16.58
2023-05-04T07:42:13.797Z,16.46
2023-05-04T07:44:42.451Z,16.57
2023-05-04T07:47:10.958Z,16.76
2023-05-04T07:49:39.130Z,16.79
2023-05-04T07:52:07.317Z,16.81
2023-05-04T07:54:36.490Z,16.62
2023-05-04T07:57:06.487Z,16.51
2023-05-04T07:59:34.703Z,16.37
2023-05-04T08:02:02.988Z,16.30
2023-05-04T08:04:31.794Z,16.32
2023-05-04T08:07:00.006Z,16.38
2023-05-04T08:09:28.380Z,16.36
2023-05-04T08:11:57.043Z,16.44
2023-05-04T08:14:27.073Z,16.37
2023-05-04T08:16:55.207Z,16.32
2023-05-04T08:19:23.788Z,16.36
2023-05-04T08:21:52.221Z,16.48
2023-05-04T08:24:20.448Z,16.39
2023-05-04T08:26:59.750Z,16.23
2023-05-04T08:29:37.432Z,16.35
2023-05-04T08:32:06.485Z,16.47
2023-05-04T08:34:34.777Z,16.50
2023-05-04T08:37:03.171Z,16.58
2023-05-04T08:39:31.434Z,16.56
2023-05-04T08:41:59.687Z,16.62
2023-05-04T08:44:27.952Z,16.51
2023-05-04T08:46:58.679Z,16.38
2023-05-04T08:49:29.286Z,16.58
2023-05-04T08:51:58.681Z,16.73
2023-05-04T08:54:29.008Z,16.70
2023-05-04T08:56:58.849Z,16.76
2023-05-04T08:59:29.084Z,16.61
2023-05-04T09:02:00.545Z,16.42
2023-05-04T09:04:29.862Z,16.32
2023-05-04T09:06:58.818Z,16.23
2023-05-04T09:09:31.446Z,16.17
2023-05-04T09:11:59.840Z,16.42
2023-05-04T09:14:33.916Z,16.69
2023-05-04T09:17:03.985Z,16.80
2023-05-04T09:19:34.891Z,16.77
2023-05-04T09:22:03.425Z,17.02
2023-05-04T09:24:31.902Z,17.07
2023-05-04T09:27:11.993Z,16.77
2023-05-04T09:29:40.909Z,16.39
2023-05-04T09:32:16.291Z,16.26
2023-05-04T09:34:51.707Z,16.38
2023-05-04T09:37:21.452Z,16.58
2023-05-04T09:39:55.265Z,16.48
2023-05-04T09:42:24.321Z,16.49
2023-05-04T09:45:03.850Z,16.70
2023-05-04T09:47:41.064Z,16.81
2023-05-04T09:50:19.775Z,16.67
2023-05-04T09:52:49.613Z,16.52
2023-05-04T09:55:19.709Z,16.42
2023-05-04T09:57:49.697Z,16.45
2023-05-04T10:00:19.373Z,16.54
2023-05-04T10:02:50.802Z,16.57
2023-05-04T10:05:21.886Z,16.47
2023-05-04T10:07:51.022Z,16.45
2023-05-04T10:10:19.222Z,16.22
2023-05-04T10:12:47.522Z,16.20
2023-05-04T10:15:17.370Z,16.02
2023-05-04T10:17:57.498Z,15.91
2023-05-04T10:20:58.504Z,15.73
2023-05-04T10:23:56.321Z,15.71
2023-05-04T10:26:59.638Z,15.82
2023-05-04T10:29:29.969Z,15.94
2023-05-04T10:31:59.615Z,15.89
2023-05-04T10:34:31.134Z,15.92
2023-05-04T10:37:00.558Z,15.81
2023-05-04T10:39:33.039Z,15.81
2023-05-04T10:42:04.168Z,15.80
2023-05-04T10:44:34.337Z,15.81
2023-05-04T10:47:05.604Z,15.93
2023-05-04T10:49:36.084Z,15.78
2023-05-04T10:52:16.089Z,15.68
2023-05-04T10:54:44.574Z,15.67
2023-05-04T10:57:17.538Z,15.66
2023-05-04T10:59:57.136Z,15.68
2023-05-04T11:02:25.937Z,15.77
2023-05-04T11:05:04.509Z,15.90
2023-05-04T11:07:37.891Z,16.04
2023-05-04T11:10:08.417Z,16.07
2023-05-04T11:12:38.999Z,15.98
2023-05-04T11:15:08.946Z,15.87
2023-05-04T11:17:46.732Z,15.91
2023-05-04T11:20:23.572Z,15.96
2023-05-04T11:22:52.361Z,16.12
2023-05-04T11:25:28.850Z,16.20
2023-05-04T11:27:58.246Z,16.10
2023-05-04T11:30:33.533Z,16.17
2023-05-04T11:33:02.409Z,16.01
2023-05-04T11:35:32.489Z,16.19
2023-05-04T11:38:00.957Z,16.29
2023-05-04T11:40:29.423Z,16.30
2023-05-04T11:42:59.226Z,16.38
2023-05-04T11:45:32.624Z,16.23
2023-05-04T11:48:01.999Z,16.33
2023-05-04T11:50:32.765Z,16.35
2023-05-04T11:53:09.407Z,16.21
2023-05-04T11:55:38.751Z,16.22
2023-05-04T11:58:08.812Z,16.16
2023-05-04T12:00:39.503Z,16.05
2023-05-04T12:03:09.458Z,15.90
2023-05-04T12:05:39.202Z,15.87
2023-05-04T12:08:12.503Z,15.91
2023-05-04T12:10:41.589Z,16.08
2023-05-04T12:13:17.669Z,16.22
2023-05-04T12:15:46.160Z,16.19
2023-05-04T12:18:29.581Z,16.19
2023-05-04T12:21:09.183Z,16.14
2023-05-04T12:23:37.763Z,16.09
2023-05-04T12:26:06.175Z,16.06
2023-05-04T12:28:34.935Z,16.08
2023-05-04T12:31:04.859Z,16.09
2023-05-04T12:33:33.092Z,16.11
2023-05-04T12:36:04.704Z,16.08
2023-05-04T12:38:33.973Z,16.18
2023-05-04T12:41:04.530Z,16.32
2023-05-04T12:43:33.548Z,16.38
2023-05-04T12:46:02.193Z,16.49
2023-05-04T12:48:33.076Z,16.64
2023-05-04T12:51:04.335Z,16.67
2023-05-04T12:53:33.122Z,16.35
2023-05-04T12:56:02.200Z,16.34
2023-05-04T12:58:31.312Z,16.28
2023-05-04T13:00:59.956Z,16.37
2023-05-04T13:03:28.628Z,16.47
2023-05-04T13:05:58.170Z,16.47
2023-05-04T13:08:27.784Z,16.52
2023-05-04T13:10:55.972Z,16.59
2023-05-04T13:13:28.596Z,16.65
2023-05-04T13:15:57.326Z,16.73
2023-05-04T13:18:27.545Z,16.75
2023-05-04T13:20:56.137Z,16.54
2023-05-04T13:23:24.394Z,16.46
2023-05-04T13:25:54.316Z,16.38
2023-05-04T13:28:22.422Z,16.40
2023-05-04T13:30:50.724Z,16.47
2023-05-04T13:33:29.460Z,16.68
2023-05-04T13:35:59.198Z,16.71
2023-05-04T13:38:27.504Z,16.81
2023-05-04T13:40:57.135Z,16.89
2023-05-04T13:43:25.704Z,16.97
2023-05-04T13:45:53.899Z,17.22
2023-05-04T13:48:22.194Z,17.32
2023-05-04T13:50:50.317Z,17.36
2023-05-04T13:53:18.510Z,17.48
2023-05-04T13:55:46.765Z,17.47
2023-05-04T13:58:16.347Z,17.37
2023-05-04T14:00:44.492Z,17.53
2023-05-04T14:03:13.101Z,17.79
2023-05-04T14:05:41.707Z,18.00
2023-05-04T14:08:09.839Z,18.13
2023-05-04T14:10:38.674Z,18.13
2023-05-04T14:13:07.066Z,18.19
2023-05-04T14:15:36.765Z,18.26
2023-05-04T14:18:05.218Z,18.33
2023-05-04T14:20:33.415Z,18.44
2023-05-04T14:23:01.624Z,18.58
2023-05-04T14:25:29.775Z,18.79
2023-05-04T14:27:57.963Z,18.78
2023-05-04T14:30:26.633Z,18.49
2023-05-04T14:32:56.906Z,18.40
2023-05-04T14:35:25.672Z,18.25
2023-05-04T14:37:53.807Z,18.32
2023-05-04T14:40:21.985Z,18.48
2023-05-04T14:42:50.160Z,18.69
2023-05-04T14:45:18.631Z,18.74
2023-05-04T14:47:47.369Z,18.94
2023-05-04T14:50:16.923Z,19.07
2023-05-04T14:52:45.128Z,19.34
2023-05-04T14:55:13.399Z,19.29
2023-05-04T14:57:44.103Z,19.39
2023-05-04T15:00:13.607Z,19.35
2023-05-04T15:02:41.781Z,19.45
2023-05-04T15:05:12.775Z,19.78
2023-05-04T15:07:42.392Z,19.93
2023-05-04T15:10:11.325Z,20.15
2023-05-04T15:12:39.664Z,20.09
2023-05-04T15:15:08.885Z,20.05
2023-05-04T15:17:37.024Z,19.68
2023-05-04T15:20:05.885Z,19.44
2023-05-04T15:22:34.194Z,19.19
2023-05-04T15:25:04.208Z,18.99
2023-05-04T15:27:32.354Z,18.76
2023-05-04T15:30:00.611Z,18.65
2023-05-04T15:32:29.198Z,18.61
2023-05-04T15:35:05.326Z,18.57
2023-05-04T15:37:34.534Z,18.64
2023-05-04T15:40:04.889Z,18.89
2023-05-04T15:42:33.395Z,19.08
2023-05-04T15:45:02.070Z,19.13
2023-05-04T15:47:32.074Z,19.04
2023-05-04T15:50:00.499Z,19.19
2023-05-04T15:52:28.833Z,19.26
2023-05-04T15:54:57.450Z,19.15
2023-05-04T15:57:27.429Z,18.94
2023-05-04T15:59:55.942Z,18.64
2023-05-04T16:02:24.296Z,18.57
2023-05-04T16:04:52.697Z,18.56
2023-05-04T16:07:21.060Z,18.57
2023-05-04T16:09:49.314Z,18.53
2023-05-04T16:12:18.367Z,18.44
2023-05-04T16:14:49.336Z,18.30
2023-05-04T16:17:17.662Z,18.15
2023-05-04T16:19:45.973Z,18.11
2023-05-04T16:22:14.814Z,18.03
2023-05-04T16:24:43.061Z,18.00
2023-05-04T16:27:11.252Z,17.97
2023-05-04T16:29:39.445Z,18.01
2023-05-04T16:32:09.554Z,18.00
2023-05-04T16:34:38.390Z,17.97
2023-05-04T16:37:08.378Z,17.83
2023-05-04T16:39:38.153Z,17.76
2023-05-04T16:42:06.713Z,17.81
2023-05-04T16:44:34.838Z,17.74
2023-05-04T16:47:03.354Z,17.62
2023-05-04T16:49:32.945Z,17.55
2023-05-04T16:52:01.174Z,17.44
2023-05-04T16:54:29.287Z,17.36
2023-05-04T16:56:57.443Z,17.18
2023-05-04T16:59:25.760Z,17.05
2023-05-04T17:01:54.088Z,17.01
2023-05-04T17:04:22.407Z,17.05
2023-05-04T17:06:51.990Z,17.04
2023-05-04T17:09:20.143Z,17.05
2023-05-04T17:11:48.378Z,16.90
2023-05-04T17:14:16.871Z,16.86
2023-05-04T17:16:45.527Z,16.85
2023-05-04T17:19:14.287Z,16.99
2023-05-04T17:21:42.633Z,17.27
2023-05-04T17:24:12.646Z,17.35
2023-05-04T17:26:40.824Z,17.12
2023-05-04T17:29:09.054Z,17.19
2023-05-04T17:31:37.434Z,17.13
2023-05-04T17:34:05.819Z,17.11
2023-05-04T17:36:34.081Z,17.05
2023-05-04T17:39:02.226Z,16.97
2023-05-04T17:41:31.914Z,16.83
2023-05-04T17:44:00.129Z,16.81
2023-05-04T17:46:28.619Z,16.80
2023-05-04T17:48:56.784Z,16.80
2023-05-04T17:51:25.097Z,16.84
2023-05-04T17:53:53.322Z,16.80
2023-05-04T17:56:22.018Z,16.67
2023-05-04T17:58:51.642Z,16.54
2023-05-04T18:01:19.855Z,16.56
2023-05-04T18:03:48.146Z,16.63
2023-05-04T18:06:16.770Z,16.66
2023-05-04T18:08:45.000Z,16.66
2023-05-04T18:11:13.599Z,16.66
2023-05-04T18:13:42.124Z,16.65
2023-05-04T18:16:11.807Z,16.54
2023-05-04T18:18:40.710Z,16.48
2023-05-04T18:21:08.929Z,16.33
2023-05-04T18:23:37.150Z,16.47
2023-05-04T18:26:05.411Z,16.49
2023-05-04T18:28:33.519Z,16.50
2023-05-04T18:31:01.976Z,16.58
2023-05-04T18:33:31.642Z,16.65
2023-05-04T18:35:59.873Z,16.63
2023-05-04T18:38:28.568Z,16.54
2023-05-04T18:40:56.822Z,16.50
2023-05-04T18:43:25.104Z,16.50
2023-05-04T18:45:53.341Z,16.52
2023-05-04T18:48:22.090Z,16.48
2023-05-04T18:50:57.486Z,16.48
2023-05-04T18:53:26.484Z,16.44
2023-05-04T18:56:02.647Z,16.42
2023-05-04T18:58:31.213Z,16.43
2023-05-04T19:00:59.787Z,16.47
2023-05-04T19:03:28.310Z,16.31
2023-05-04T19:05:58.073Z,16.27
2023-05-04T19:08:26.546Z,16.20
2023-05-04T19:10:59.289Z,16.11
2023-05-04T19:13:27.614Z,15.91
2023-05-04T19:15:55.846Z,15.90
2023-05-04T19:18:24.788Z,15.81
2023-05-04T19:20:53.146Z,15.88
2023-05-04T19:23:23.104Z,15.87
2023-05-04T19:25:51.250Z,15.77
2023-05-04T19:28:19.889Z,15.72
2023-05-04T19:30:49.100Z,15.75
2023-05-04T19:33:17.902Z,15.80
2023-05-04T19:35:46.924Z,15.73
2023-05-04T19:38:15.155Z,15.71
2023-05-04T19:40:44.779Z,15.58
2023-05-04T19:43:12.966Z,15.54
2023-05-04T19:45:41.011Z,15.56
2023-05-04T19:48:10.219Z,15.52
2023-05-04T19:50:38.636Z,15.52
2023-05-04T19:53:06.788Z,15.44
2023-05-04T19:55:35.215Z,15.37
2023-05-04T19:58:05.221Z,15.35
2023-05-04T20:00:33.768Z,15.20
2023-05-04T20:03:01.997Z,15.15
2023-05-04T20:05:30.229Z,15.15
2023-05-04T20:07:58.523Z,15.16
2023-05-04T20:10:26.936Z,15.18
2023-05-04T20:12:55.087Z,15.09
2023-05-04T20:15:24.593Z,15.06
2023-05-04T20:17:52.829Z,14.99
2023-05-04T20:20:22.107Z,14.98
2023-05-04T20:22:52.451Z,14.94
2023-05-04T20:25:21.030Z,14.86
2023-05-04T20:27:52.227Z,14.94
2023-05-04T20:30:20.403Z,14.94
2023-05-04T20:32:50.559Z,14.82
2023-05-04T20:35:18.961Z,14.96
2023-05-04T20:37:47.883Z,15.02
2023-05-04T20:40:17.245Z,15.01
2023-05-04T20:42:45.751Z,15.12
2023-05-04T20:45:14.065Z,15.19
2023-05-04T20:47:42.783Z,15.13
2023-05-04T20:50:12.705Z,15.22
2023-05-04T20:52:40.809Z,15.28
2023-05-04T20:55:09.745Z,15.32
2023-05-04T20:57:38.290Z,15.23
2023-05-04T21:00:08.128Z,15.36
2023-05-04T21:02:37.285Z,15.30
2023-05-04T21:05:06.465Z,15.34
2023-05-04T21:07:36.455Z,15.34
2023-05-04T21:10:05.180Z,15.36
2023-05-04T21:12:33.572Z,15.26
2023-05-04T21:15:01.703Z,15.27
2023-05-04T21:17:29.842Z,15.26
2023-05-04T21:19:57.949Z,15.25
2023-05-04T21:22:26.256Z,15.29
2023-05-04T21:24:55.833Z,15.36
2023-05-04T21:27:24.050Z,15.40
2023-05-04T21:29:52.137Z,15.42
2023-05-04T21:32:20.927Z,15.36
2023-05-04T21:34:53.230Z,15.39
2023-05-04T21:37:21.258Z,15.24
2023-05-04T21:39:53.795Z,15.27
2023-05-04T21:42:23.885Z,15.32
2023-05-04T21:44:55.172Z,15.26
2023-05-04T21:47:23.432Z,15.26
2023-05-04T21:49:52.148Z,15.35
2023-05-04T21:52:20.678Z,15.36
2023-05-04T21:54:48.872Z,15.33
2023-05-04T21:57:17.548Z,15.33
2023-05-04T21:59:49.616Z,15.25
2023-05-04T22:02:18.001Z,15.14
2023-05-04T22:04:46.166Z,15.25
2023-05-04T22:07:15.620Z,15.25
2023-05-04T22:09:44.010Z,15.25
2023-05-04T22:12:12.150Z,15.26
2023-05-04T22:14:42.187Z,15.21
2023-05-04T22:17:12.174Z,15.24
2023-05-04T22:19:40.671Z,15.16
2023-05-04T22:22:08.846Z,15.15
2023-05-04T22:24:36.927Z,15.23
2023-05-04T22:27:05.197Z,15.31
2023-05-04T22:29:35.280Z,15.32
2023-05-04T22:32:03.787Z,15.24
2023-05-04T22:34:33.348Z,15.21
2023-05-04T22:37:03.245Z,15.27
2023-05-04T22:39:31.898Z,15.15
2023-05-04T22:41:59.961Z,15.10
2023-05-04T22:44:28.184Z,15.13
2023-05-04T22:46:56.311Z,15.15
2023-05-04T22:49:24.540Z,15.13
2023-05-04T22:51:54.264Z,15.12
2023-05-04T22:54:22.620Z,15.06
2023-05-04T22:56:51.083Z,15.02
2023-05-04T22:59:19.277Z,15.01
2023-05-04T23:01:47.750Z,15.00
2023-05-04T23:04:16.492Z,15.04
2023-05-04T23:06:44.981Z,15.07
2023-05-04T23:09:15.321Z,14.98
2023-05-04T23:11:43.882Z,14.96
2023-05-04T23:14:13.055Z,15.04
2023-05-04T23:16:41.209Z,15.02
2023-05-04T23:19:10.061Z,14.97
2023-05-04T23:21:39.699Z,14.93
2023-05-04T23:24:08.107Z,14.99
2023-05-04T23:26:37.698Z,15.09
2023-05-04T23:29:05.867Z,15.16
2023-05-04T23:31:34.176Z,15.24
2023-05-04T23:34:02.861Z,15.29
2023-05-04T23:36:31.011Z,15.31
2023-05-04T23:38:59.279Z,15.31
2023-05-04T23:41:27.484Z,15.24
2023-05-04T23:43:59.447Z,15.24
2023-05-04T23:46:27.794Z,15.16
2023-05-04T23:48:56.182Z,15.08
2023-05-04T23:51:24.276Z,15.17
2023-05-04T23:53:53.229Z,15.18
2023-05-04T23:56:21.781Z,15.21
2023-05-04T23:58:50.016Z,15.23
